Pagrindinis puslapis
METAR-TAF:

METAR-TAF

Oro uostai :

Pekanbaru, Indonezija

platuma: 00-28N, ilguma: 101-27E, Aukštis: 31 m

Dabartinis oras

Ataskaita buvo paskelbta 1 valandą ir 25 minutes, ne 18:00 UTC
Ramus vėjas
Temperatūra 25°C
Drėgmė 89%
Slėgis 1007 hPa
Matomumas: 8000 m
Mažai debesys ne aukštis 1500 ft

METAR: WIBB 301800Z 00000KT 8000 FEW015 25/23 Q1007

Laikas: 02:25 (19:25 UTC)


TAF: trūkstamas

Orai ataskaitas ir orų prognozės (METAR, TAF).

turimą stotys yra geltonos ir raudonos taškus žemėlapyje.

Perkelti pele per norėdami pamatyti stoties vardą.

Tada spustelėkite, norėdami matyti oro stebėjimo ir prognozės.

Norėdami pakeisti žemėlapį: spustelėkite ant žalios mygtukų su juodo kryžiaus žemyn,; žalią mygtuką su brūkšneliu, jei norite nutolinti; arba žalių rodyklių gretimoms žemėlapius.


METAR-TAF: